Time;durP1;ratioP1;P1;durP2;ratioP2;P2;SDS_P1;SDS_P2;PMS_P1;PMS_P2;Temp;Humidity;BMP_temperature;BMP_pressure;BME280_temperature;BME280_humidity;BME280_pressure;Samples;Min_cycle;Max_cycle;Signal;HPM_P1;HPM_P2
2023/01/15 00:02:16;;;;;;;;;79.25;61.25;;;;;11.77;59.08;99901.38;5058489;28;8819;-79
2023/01/15 00:04:46;;;;;;;;;78.75;60.50;;;;;11.84;58.94;99894.44;5088513;28;8851;-79
2023/01/15 00:07:15;;;;;;;;;75.75;58.75;;;;;11.82;58.89;99896.19;5055154;28;8827;-79
2023/01/15 00:09:44;;;;;;;;;76.75;59.50;;;;;11.83;58.54;99890.97;5088511;28;8839;-82
2023/01/15 00:12:13;;;;;;;;;75.50;60.50;;;;;11.85;58.54;99885.72;5057936;28;8948;-79
2023/01/15 00:14:41;;;;;;;;;81.50;61.25;;;;;11.86;58.66;99887.47;5070900;28;8841;-79
2023/01/15 00:17:10;;;;;;;;;68.75;56.00;;;;;11.80;59.03;99888.34;5091871;28;8916;-79
2023/01/15 00:19:39;;;;;;;;;72.75;57.75;;;;;11.82;58.41;99890.97;5058168;28;8875;-81
2023/01/15 00:22:09;;;;;;;;;78.75;61.00;;;;;11.78;58.98;99892.69;5108298;28;8848;-77
2023/01/15 00:27:42;;;;;;;;;78.00;57.75;;;;;11.67;58.19;99891.81;5091979;28;8844;-76
2023/01/15 00:30:14;;;;;;;;;79.50;61.50;;;;;11.62;58.17;99883.97;5089160;28;8866;-77
2023/01/15 00:32:44;;;;;;;;;76.25;60.25;;;;;11.60;59.03;99895.28;5093806;28;9044;-81
2023/01/15 00:35:14;;;;;;;;;78.50;58.75;;;;;11.59;58.23;99883.13;5088761;28;8861;-80
2023/01/15 00:37:45;;;;;;;;;77.50;58.75;;;;;11.49;58.77;99880.50;5088060;28;8926;-81
2023/01/15 00:40:15;;;;;;;;;77.00;56.50;;;;;11.44;58.16;99890.06;5087925;28;8972;-79
2023/01/15 00:42:44;;;;;;;;;83.75;61.50;;;;;11.43;58.21;99883.06;5096997;27;8837;-77
2023/01/15 00:45:22;;;;;;;;;76.00;57.25;;;;;11.36;58.07;99883.97;5112949;27;8842;-77
2023/01/15 00:47:51;;;;;;;;;81.00;61.25;;;;;11.31;57.96;99872.63;5154995;27;8835;-76
2023/01/15 00:50:21;;;;;;;;;71.50;56.50;;;;;11.34;58.12;99867.41;5136960;27;8855;-77
2023/01/15 00:52:51;;;;;;;;;72.25;57.00;;;;;11.28;57.86;99876.09;5137122;27;8943;-79
2023/01/15 00:55:21;;;;;;;;;72.50;56.75;;;;;11.22;57.79;99876.09;5137388;27;8890;-80
2023/01/15 00:57:50;;;;;;;;;73.50;59.00;;;;;11.18;57.98;99871.72;5135811;27;9603;-78
2023/01/15 01:00:18;;;;;;;;;71.50;58.00;;;;;11.19;58.09;99873.47;5066521;27;8847;-78
2023/01/15 01:02:47;;;;;;;;;72.00;55.75;;;;;11.15;58.26;99868.22;5134245;27;8839;-79
2023/01/15 01:05:16;;;;;;;;;73.25;56.75;;;;;11.16;57.63;99870.84;5115079;27;8865;-75
2023/01/15 01:07:45;;;;;;;;;78.50;59.00;;;;;11.09;58.23;99869.09;5129694;27;8838;-80
2023/01/15 01:10:16;;;;;;;;;72.25;57.50;;;;;11.01;57.97;99861.25;5095702;27;8853;-79
2023/01/15 01:12:47;;;;;;;;;70.75;56.75;;;;;10.99;57.70;99849.94;5110551;27;8835;-81
2023/01/15 01:15:16;;;;;;;;;72.75;56.75;;;;;10.95;57.94;99848.19;5150686;27;8835;-82
2023/01/15 01:17:45;;;;;;;;;74.25;58.00;;;;;10.87;58.61;99850.78;5115948;27;8851;-78
2023/01/15 01:20:15;;;;;;;;;72.50;57.50;;;;;10.77;59.00;99849.00;5114898;27;8839;-79
2023/01/15 01:22:44;;;;;;;;;64.25;50.75;;;;;10.67;58.82;99844.63;5149874;27;8866;-78
2023/01/15 01:25:13;;;;;;;;;63.75;51.50;;;;;10.76;58.45;99838.56;5150407;27;8835;-79
2023/01/15 01:27:46;;;;;;;;;64.00;51.75;;;;;10.70;58.73;99835.06;5112222;27;8852;-80
2023/01/15 01:30:15;;;;;;;;;68.75;54.75;;;;;10.63;58.93;99838.50;5067742;28;9129;-78
2023/01/15 01:32:45;;;;;;;;;72.50;55.00;;;;;10.62;58.73;99841.97;5041189;28;9670;-80
2023/01/15 01:35:13;;;;;;;;;66.75;53.25;;;;;10.54;58.91;99834.13;5066553;28;9652;-79
2023/01/15 01:37:42;;;;;;;;;67.50;54.50;;;;;10.53;58.95;99829.78;5066622;28;8859;-79
2023/01/15 01:40:12;;;;;;;;;66.25;51.50;;;;;10.47;59.25;99828.88;5049406;28;9786;-79
2023/01/15 01:42:40;;;;;;;;;72.00;55.50;;;;;10.38;59.16;99824.50;5068418;28;8898;-80
2023/01/15 01:45:23;;;;;;;;;64.50;52.75;;;;;10.52;59.22;99829.78;5086933;28;8935;-77
2023/01/15 01:47:56;;;;;;;;;63.75;52.50;;;;;10.29;59.85;99821.81;5053236;28;8830;-77
2023/01/15 01:50:26;;;;;;;;;64.75;53.50;;;;;10.28;59.56;99809.63;5050314;28;8856;-77
2023/01/15 01:53:03;;;;;;;;;68.75;56.00;;;;;10.36;59.50;99814.91;5049691;28;8890;-80
2023/01/15 01:55:34;;;;;;;;;68.00;54.00;;;;;10.43;59.26;99806.25;5015823;28;8848;-77
2023/01/15 01:58:08;;;;;;;;;63.75;52.25;;;;;10.45;59.36;99796.72;5033040;28;8840;-79
2023/01/15 02:00:44;;;;;;;;;67.75;56.00;;;;;10.51;58.60;99791.53;5072275;28;8936;-77
2023/01/15 02:03:14;;;;;;;;;54.00;44.00;;;;;10.46;58.87;99793.25;5106395;28;8893;-79
2023/01/15 02:05:49;;;;;;;;;64.00;52.00;;;;;10.47;58.96;99788.06;5106229;28;8847;-75
2023/01/15 02:08:18;;;;;;;;;53.00;42.75;;;;;10.33;59.11;99790.59;5106796;28;8839;-76
2023/01/15 02:10:51;;;;;;;;;48.00;42.50;;;;;10.36;58.81;99775.81;5056304;28;8964;-78
2023/01/15 02:13:28;;;;;;;;;55.25;42.75;;;;;10.43;58.74;99773.25;5057901;28;8849;-81
2023/01/15 02:16:03;;;;;;;;;51.25;41.75;;;;;10.38;58.77;99777.59;5021821;28;8946;-79
2023/01/15 02:18:40;;;;;;;;;49.75;43.00;;;;;10.26;59.01;99785.31;5090433;28;8840;-79
2023/01/15 02:21:23;;;;;;;;;44.25;41.00;;;;;10.31;59.36;99784.50;5115059;27;8833;-77
2023/01/15 02:24:05;;;;;;;;;47.75;38.50;;;;;10.30;59.15;99780.16;5112640;27;8918;-77
2023/01/15 02:27:05;;;;;;;;;42.25;36.50;;;;;10.27;59.60;99779.25;5133403;27;8853;-77
2023/01/15 02:29:47;;;;;;;;;55.50;46.75;;;;;10.27;59.81;99764.47;5148413;27;9448;-79
2023/01/15 02:32:29;;;;;;;;;62.75;47.25;;;;;10.11;60.30;99770.47;5122489;27;8827;-78
2023/01/15 02:35:04;;;;;;;;;60.50;48.75;;;;;10.01;60.95;99763.47;5130665;27;8834;-77
2023/01/15 02:37:39;;;;;;;;;69.25;55.00;;;;;9.98;61.06;99772.16;5112304;27;8845;-79
2023/01/15 02:40:12;;;;;;;;;65.25;53.25;;;;;10.05;60.85;99767.84;5113045;27;8831;-79
2023/01/15 02:42:46;;;;;;;;;63.50;50.75;;;;;10.11;60.47;99763.53;5113573;27;8897;-79
2023/01/15 02:45:22;;;;;;;;;64.50;51.75;;;;;10.11;60.75;99758.31;5127881;27;8831;-80
2023/01/15 02:47:56;;;;;;;;;61.25;49.75;;;;;10.12;60.36;99760.06;5094343;27;8817;-78
2023/01/15 02:50:29;;;;;;;;;61.50;48.50;;;;;10.11;60.61;99747.00;5076967;27;8850;-81
2023/01/15 02:53:04;;;;;;;;;64.50;51.25;;;;;10.13;60.39;99743.56;5128653;27;8842;-78
2023/01/15 02:55:42;;;;;;;;;59.50;50.75;;;;;10.01;60.35;99743.50;5113212;27;8838;-78
2023/01/15 02:58:20;;;;;;;;;68.75;54.25;;;;;10.14;60.12;99734.00;5081315;27;8843;-76
2023/01/15 03:00:53;;;;;;;;;55.75;47.25;;;;;10.10;60.30;99730.50;5130158;27;8836;-76
2023/01/15 03:03:35;;;;;;;;;60.25;48.50;;;;;10.15;60.11;99727.91;5149987;27;8935;-78
2023/01/15 03:06:10;;;;;;;;;68.50;55.25;;;;;10.06;60.07;99727.91;5132090;27;8843;-77
2023/01/15 03:08:40;;;;;;;;;64.25;53.25;;;;;10.06;59.68;99736.59;5131601;27;8855;-79
2023/01/15 03:11:13;;;;;;;;;60.50;47.50;;;;;10.08;59.76;99732.25;5135288;27;8820;-77
2023/01/15 03:13:51;;;;;;;;;52.25;44.75;;;;;10.07;59.78;99724.41;5135398;27;8889;-77
2023/01/15 03:16:34;;;;;;;;;60.00;50.75;;;;;10.02;59.89;99720.91;5155341;27;8829;-76
2023/01/15 03:19:13;;;;;;;;;58.75;46.25;;;;;9.96;60.15;99716.53;5098646;27;8877;-80
2023/01/15 03:21:48;;;;;;;;;60.75;48.75;;;;;9.97;59.98;99723.50;5097696;27;8845;-80
2023/01/15 03:24:25;;;;;;;;;54.50;46.00;;;;;10.00;60.14;99722.63;5113476;27;8857;-78
2023/01/15 03:26:54;;;;;;;;;31.75;24.25;;;;;9.87;60.38;99714.78;5114312;27;8929;-80
2023/01/15 03:29:29;;;;;;;;;59.50;48.50;;;;;9.93;60.25;99719.16;5114641;27;8881;-80
2023/01/15 03:31:59;;;;;;;;;61.00;51.00;;;;;9.97;59.85;99714.84;5114573;27;8871;-79
2023/01/15 03:34:36;;;;;;;;;49.50;44.75;;;;;10.11;59.46;99716.63;5120154;27;8849;-78
2023/01/15 03:37:07;;;;;;;;;60.75;44.25;;;;;10.03;59.31;99713.09;5097733;27;8857;-79
2023/01/15 03:39:36;;;;;;;;;55.50;42.75;;;;;10.03;59.28;99712.25;5106128;27;8843;-78
2023/01/15 03:42:29;;;;;;;;;52.75;42.50;;;;;10.08;59.59;99711.41;5134974;27;9756;-76
2023/01/15 03:45:10;;;;;;;;;51.75;45.00;;;;;10.10;59.61;99707.06;5117949;27;8832;-77
2023/01/15 03:47:50;;;;;;;;;41.00;36.25;;;;;10.04;59.77;99703.59;5117784;27;8851;-79
2023/01/15 03:50:27;;;;;;;;;58.75;44.25;;;;;10.04;59.93;99704.44;5133295;27;8854;-78
2023/01/15 03:53:06;;;;;;;;;52.00;42.75;;;;;10.08;60.02;99707.94;5117982;27;8835;-78
2023/01/15 03:55:44;;;;;;;;;54.00;44.75;;;;;10.04;59.99;99709.66;5134518;27;8847;-80
2023/01/15 03:58:20;;;;;;;;;61.75;47.50;;;;;9.99;60.41;99689.66;5113819;27;8833;-76
2023/01/15 04:00:53;;;;;;;;;53.50;43.00;;;;;9.86;60.56;99691.34;5096260;27;8849;-74
2023/01/15 04:03:26;;;;;;;;;59.50;46.25;;;;;9.74;61.15;99689.53;5096769;27;9582;-76
2023/01/15 04:05:59;;;;;;;;;52.00;41.00;;;;;9.79;61.24;99697.38;5123215;27;8828;-78
2023/01/15 04:08:33;;;;;;;;;55.00;46.50;;;;;9.84;60.87;99687.84;5134471;27;8846;-78
2023/01/15 04:11:02;;;;;;;;;64.00;47.50;;;;;9.87;61.25;99693.09;5146982;27;8884;-77
2023/01/15 04:13:34;;;;;;;;;58.75;47.00;;;;;9.85;60.72;99686.97;5096884;27;8822;-78
2023/01/15 04:16:05;;;;;;;;;55.25;46.50;;;;;9.88;61.38;99685.25;5113628;27;8846;-79
2023/01/15 04:18:34;;;;;;;;;59.50;49.75;;;;;9.90;60.47;99683.53;5113505;27;8853;-78
2023/01/15 04:21:03;;;;;;;;;60.00;46.50;;;;;9.84;60.57;99677.44;5111958;27;8853;-77
2023/01/15 04:23:35;;;;;;;;;59.25;49.50;;;;;9.87;60.67;99680.94;5087376;27;8823;-77
2023/01/15 04:26:04;;;;;;;;;61.25;48.75;;;;;9.77;60.77;99666.09;5115430;27;9665;-78
2023/01/15 04:28:33;;;;;;;;;64.25;49.75;;;;;9.80;60.83;99666.13;5152403;27;8843;-77
2023/01/15 04:31:01;;;;;;;;;64.50;50.25;;;;;9.74;61.08;99659.16;5131009;27;8839;-77
2023/01/15 04:33:31;;;;;;;;;59.75;45.00;;;;;9.54;61.91;99651.22;5113303;27;8910;-78
2023/01/15 04:36:01;;;;;;;;;59.25;48.75;;;;;9.43;62.95;99658.09;5113366;27;8860;-77
2023/01/15 04:38:30;;;;;;;;;59.50;48.25;;;;;9.38;62.89;99649.44;5112567;27;9562;-78
2023/01/15 04:46:37;;;;;;;;;51.00;44.25;;;;;9.30;63.70;99638.97;5065057;28;8950;-78
2023/01/15 04:49:10;;;;;;;;;64.75;52.25;;;;;9.27;63.87;99645.88;5050725;28;8964;-79
2023/01/15 04:51:39;;;;;;;;;62.75;49.50;;;;;9.28;63.84;99647.63;5067519;28;10017;-79
2023/01/15 04:54:10;;;;;;;;;61.75;49.75;;;;;9.32;63.50;99647.66;5033182;28;8839;-77
2023/01/15 04:56:41;;;;;;;;;65.00;52.50;;;;;9.23;63.07;99650.19;5050398;28;8872;-79
2023/01/15 04:59:11;;;;;;;;;53.00;45.25;;;;;9.20;63.51;99644.97;5050794;28;8897;-77
2023/01/15 05:01:39;;;;;;;;;65.25;52.25;;;;;9.17;63.57;99642.38;5071980;28;8859;-76
2023/01/15 05:04:23;;;;;;;;;58.75;47.75;;;;;9.11;63.07;99648.41;5072111;28;8890;-78
2023/01/15 05:06:52;;;;;;;;;64.25;52.00;;;;;9.17;63.41;99647.56;5050749;28;8856;-79
2023/01/15 05:09:21;;;;;;;;;59.25;47.25;;;;;9.07;63.54;99648.34;5050621;28;8855;-79
2023/01/15 05:11:49;;;;;;;;;63.50;52.00;;;;;9.13;63.47;99653.56;5049213;28;8886;-79
2023/01/15 05:14:18;;;;;;;;;63.00;49.25;;;;;9.11;63.14;99655.31;5017245;28;8840;-77
2023/01/15 05:16:47;;;;;;;;;63.25;51.50;;;;;9.08;63.43;99650.97;5066790;28;8936;-81
2023/01/15 05:19:16;;;;;;;;;64.75;52.25;;;;;9.12;62.73;99651.84;5070122;28;8964;-78
2023/01/15 05:21:46;;;;;;;;;69.75;55.00;;;;;9.05;63.26;99655.28;5051168;28;8902;-76
2023/01/15 05:24:17;;;;;;;;;65.00;51.25;;;;;9.06;62.93;99652.69;5095756;27;8849;-76
2023/01/15 05:26:46;;;;;;;;;64.00;51.75;;;;;9.06;63.05;99652.69;5131884;27;8841;-78
2023/01/15 05:29:15;;;;;;;;;61.25;50.75;;;;;9.04;63.00;99649.19;5113072;27;8888;-80
2023/01/15 05:31:44;;;;;;;;;62.75;46.75;;;;;8.97;63.02;99644.81;5096303;27;9691;-77
2023/01/15 05:34:14;;;;;;;;;66.00;52.25;;;;;9.04;63.27;99640.53;5128189;27;8822;-76
2023/01/15 05:36:42;;;;;;;;;62.00;49.25;;;;;9.03;62.94;99644.84;5129974;27;9613;-78
2023/01/15 05:39:12;;;;;;;;;66.50;48.50;;;;;9.04;63.13;99645.75;5112004;27;8865;-80
2023/01/15 05:41:51;;;;;;;;;60.00;47.00;;;;;9.10;62.59;99640.56;5130687;27;8849;-77
2023/01/15 05:44:22;;;;;;;;;65.50;53.25;;;;;9.26;62.27;99634.63;5135423;27;8845;-76
2023/01/15 05:46:53;;;;;;;;;55.25;44.00;;;;;9.34;62.10;99632.91;5129135;27;8880;-77
2023/01/15 05:49:25;;;;;;;;;61.50;50.00;;;;;9.34;61.43;99629.47;5112515;27;8849;-79
2023/01/15 05:51:54;;;;;;;;;65.25;54.50;;;;;9.38;61.50;99628.59;5111838;27;8867;-78
2023/01/15 05:54:27;;;;;;;;;48.75;44.00;;;;;9.45;60.92;99634.69;5093807;27;8853;-79
2023/01/15 05:56:56;;;;;;;;;59.25;47.25;;;;;9.33;61.31;99631.16;5095143;27;8845;-81
2023/01/15 05:59:27;;;;;;;;;59.25;47.50;;;;;9.40;61.24;99629.47;5112529;27;8915;-79
2023/01/15 06:01:56;;;;;;;;;50.25;40.50;;;;;9.18;61.79;99624.13;5144867;27;8870;-78
2023/01/15 06:04:25;;;;;;;;;61.50;47.75;;;;;9.08;62.41;99621.47;5125583;27;8843;-80
2023/01/15 06:06:55;;;;;;;;;53.25;44.25;;;;;9.11;61.73;99631.88;5133067;27;8855;-79
2023/01/15 06:09:28;;;;;;;;;58.50;50.25;;;;;9.13;62.06;99625.84;5132087;27;8951;-78
2023/01/15 06:11:57;;;;;;;;;59.25;48.00;;;;;8.97;62.48;99618.81;5132495;27;8916;-76
2023/01/15 06:14:26;;;;;;;;;65.75;49.00;;;;;8.87;63.40;99607.47;5115384;27;8939;-78
2023/01/15 06:16:55;;;;;;;;;60.25;48.25;;;;;8.75;63.62;99622.97;5123088;27;8821;-80
2023/01/15 06:19:24;;;;;;;;;60.00;47.25;;;;;8.74;63.73;99621.22;5129934;27;8841;-76
2023/01/15 06:21:53;;;;;;;;;67.00;54.50;;;;;8.79;63.25;99609.16;5061295;27;8939;-79
2023/01/15 06:24:21;;;;;;;;;76.75;58.00;;;;;8.73;64.07;99616.88;5111074;27;8841;-76
2023/01/15 06:26:51;;;;;;;;;61.75;52.00;;;;;8.78;63.43;99616.06;5116927;27;9571;-79
2023/01/15 06:29:20;;;;;;;;;67.50;54.00;;;;;8.80;63.58;99613.47;5094760;27;8869;-78
2023/01/15 06:31:49;;;;;;;;;65.25;54.50;;;;;8.79;63.70;99601.34;5111571;27;8910;-78
2023/01/15 06:34:18;;;;;;;;;68.50;54.75;;;;;8.91;63.94;99598.81;5143429;27;8839;-77
2023/01/15 06:36:46;;;;;;;;;70.25;53.50;;;;;8.72;64.14;99600.41;5127395;27;8850;-79
2023/01/15 06:39:16;;;;;;;;;70.75;54.25;;;;;8.56;65.07;99591.63;5129525;27;8841;-77
2023/01/15 06:47:20;;;;;;;;;70.25;56.25;;;;;8.29;66.49;99596.53;5137070;27;8835;-78
2023/01/15 06:49:52;;;;;;;;;67.75;53.50;;;;;8.31;66.30;99590.50;5149133;27;8829;-78
2023/01/15 06:52:21;;;;;;;;;72.75;56.00;;;;;8.27;66.21;99591.31;5071898;28;9844;-79
2023/01/15 06:54:50;;;;;;;;;63.75;53.00;;;;;8.36;65.50;99590.56;5052745;28;8853;-78
2023/01/15 06:57:19;;;;;;;;;71.00;59.25;;;;;8.24;66.44;99591.31;5015689;28;8870;-77
2023/01/15 06:59:50;;;;;;;;;66.00;54.50;;;;;8.31;65.86;99587.03;5025812;28;9093;-78
2023/01/15 07:02:20;;;;;;;;;73.00;57.50;;;;;8.32;65.66;99594.84;5009279;28;8868;-78
2023/01/15 07:04:49;;;;;;;;;69.25;54.50;;;;;8.26;66.17;99591.31;5028620;28;8840;-79
2023/01/15 07:07:20;;;;;;;;;66.25;54.25;;;;;8.30;65.66;99591.38;5019648;28;8860;-78
2023/01/15 07:09:49;;;;;;;;;66.50;54.00;;;;;8.43;65.53;99587.19;5025449;28;8880;-77
2023/01/15 07:12:18;;;;;;;;;70.00;55.75;;;;;8.32;65.42;99587.06;5038158;28;9612;-79
2023/01/15 07:14:49;;;;;;;;;71.75;58.25;;;;;8.45;65.62;99585.47;5044962;28;8892;-81
2023/01/15 07:17:17;;;;;;;;;69.00;54.00;;;;;8.44;65.35;99588.91;5028369;28;8877;-78
2023/01/15 07:19:46;;;;;;;;;70.75;55.50;;;;;8.51;65.48;99585.53;5045086;28;8862;-78
2023/01/15 07:22:15;;;;;;;;;66.50;53.25;;;;;8.64;64.86;99580.41;5045306;28;8912;-78
2023/01/15 07:24:44;;;;;;;;;73.75;58.00;;;;;8.78;64.57;99565.78;5087862;28;8843;-78
2023/01/15 07:27:12;;;;;;;;;71.25;59.00;;;;;8.79;64.05;99564.94;5085116;28;8878;-77
2023/01/15 07:29:41;;;;;;;;;78.50;58.50;;;;;8.87;64.05;99563.25;5127415;27;8850;-80
2023/01/15 07:32:12;;;;;;;;;77.00;57.00;;;;;8.94;64.01;99564.16;5128590;27;8854;-76
2023/01/15 07:34:41;;;;;;;;;70.00;57.50;;;;;8.78;64.36;99573.59;5127799;27;8857;-77
2023/01/15 07:37:10;;;;;;;;;65.75;51.75;;;;;8.88;63.47;99575.38;5139880;27;8882;-78
2023/01/15 07:39:39;;;;;;;;;67.50;53.00;;;;;8.95;63.26;99576.31;5124918;27;8859;-78
2023/01/15 07:50:31;;;;;;;;;77.25;59.00;;;;;9.27;62.26;99563.47;5112748;27;8876;-78
2023/01/15 07:53:00;;;;;;;;;70.50;58.50;;;;;9.29;62.44;99555.69;5108663;28;8867;-79
2023/01/15 07:55:29;;;;;;;;;68.50;54.75;;;;;9.46;61.79;99547.97;5099214;27;8842;-78
2023/01/15 07:57:58;;;;;;;;;70.25;55.00;;;;;9.16;62.81;99546.94;5127320;27;8968;-78
2023/01/15 08:00:27;;;;;;;;;65.25;52.50;;;;;9.29;62.43;99553.94;5131042;27;8980;-78
2023/01/15 08:02:57;;;;;;;;;67.25;54.75;;;;;9.51;61.72;99546.25;5093992;28;8839;-76
2023/01/15 08:05:26;;;;;;;;;68.25;52.25;;;;;9.59;61.50;99544.53;5075108;28;8853;-77
2023/01/15 08:07:55;;;;;;;;;65.50;54.25;;;;;9.73;60.98;99548.06;5036807;28;8941;-79
2023/01/15 08:10:24;;;;;;;;;65.50;49.75;;;;;9.71;60.98;99538.50;5068756;28;8890;-76
2023/01/15 08:15:42;;;;;;;;;64.75;53.00;;;;;9.53;61.96;99534.97;5051005;28;8848;-76
2023/01/15 08:18:12;;;;;;;;;71.25;55.50;;;;;9.46;62.18;99532.34;5069822;28;8867;-80
2023/01/15 08:20:42;;;;;;;;;66.25;51.00;;;;;9.52;61.70;99535.81;5068226;28;8852;-75
2023/01/15 08:23:13;;;;;;;;;64.50;51.75;;;;;9.56;62.23;99542.81;5079794;28;8853;-77
2023/01/15 08:25:42;;;;;;;;;66.00;51.25;;;;;9.70;61.87;99539.38;5070819;28;8950;-75
2023/01/15 08:28:13;;;;;;;;;63.75;51.00;;;;;9.69;61.63;99535.00;5062590;28;8863;-76
2023/01/15 08:30:42;;;;;;;;;65.00;54.50;;;;;9.91;61.31;99530.72;5051168;28;8904;-76
2023/01/15 08:33:12;;;;;;;;;68.25;54.75;;;;;9.85;61.44;99534.19;5076235;28;8844;-76
2023/01/15 08:35:41;;;;;;;;;73.50;54.50;;;;;9.94;61.22;99530.72;5091719;28;8854;-75
2023/01/15 08:38:10;;;;;;;;;64.00;50.50;;;;;9.91;61.33;99536.81;5110455;27;8962;-79
2023/01/15 08:40:57;;;;;;;;;65.00;51.75;;;;;10.16;60.94;99531.63;5131303;27;8833;-78
2023/01/15 08:43:27;;;;;;;;;57.25;47.25;;;;;10.26;60.17;99530.75;5131277;27;8853;-72
2023/01/15 08:45:57;;;;;;;;;56.75;47.50;;;;;10.43;60.21;99529.94;5140078;27;8843;-76
2023/01/15 08:48:29;;;;;;;;;68.00;53.75;;;;;10.58;59.72;99534.28;5116507;27;8857;-75
2023/01/15 08:50:58;;;;;;;;;67.75;55.25;;;;;10.55;60.27;99522.13;5151564;27;8861;-76
2023/01/15 08:53:28;;;;;;;;;60.50;50.00;;;;;10.68;60.07;99518.63;5151057;27;8855;-77
2023/01/15 08:55:57;;;;;;;;;63.75;51.25;;;;;10.75;59.06;99522.06;5148086;27;8917;-76
2023/01/15 08:58:28;;;;;;;;;63.75;51.25;;;;;10.85;59.14;99516.00;5129935;27;8826;-79
2023/01/15 09:01:03;;;;;;;;;59.75;47.25;;;;;10.95;58.48;99513.34;5093948;27;8865;-78
2023/01/15 09:03:33;;;;;;;;;63.00;50.75;;;;;10.98;58.99;99505.50;5127828;27;8861;-77
2023/01/15 09:06:04;;;;;;;;;60.25;50.50;;;;;10.97;58.76;99507.25;5143204;27;8833;-76
2023/01/15 09:08:33;;;;;;;;;66.50;52.75;;;;;11.04;59.16;99502.88;5111652;27;8847;-76
2023/01/15 09:11:05;;;;;;;;;66.25;53.50;;;;;11.19;59.06;99495.00;5094339;27;8837;-80
2023/01/15 09:13:34;;;;;;;;;63.00;52.25;;;;;11.24;58.92;99494.97;5090939;27;8841;-75
2023/01/15 09:16:05;;;;;;;;;62.00;50.00;;;;;11.35;58.15;99493.19;5129240;27;8826;-78
2023/01/15 09:18:37;;;;;;;;;61.50;49.50;;;;;11.38;58.40;99481.84;5127096;27;8984;-79
2023/01/15 09:21:06;;;;;;;;;62.25;48.50;;;;;11.49;58.15;99482.66;5104819;27;8943;-77
2023/01/15 09:23:35;;;;;;;;;62.00;50.25;;;;;11.60;57.69;99473.03;5128107;27;8880;-78
2023/01/15 09:26:06;;;;;;;;;55.50;47.75;;;;;11.56;56.93;99481.75;5129567;27;8857;-78
2023/01/15 09:28:35;;;;;;;;;62.75;49.75;;;;;11.43;57.30;99467.91;5129776;27;8946;-80
2023/01/15 09:31:04;;;;;;;;;56.50;46.25;;;;;11.61;55.98;99466.94;5112484;27;8837;-80
2023/01/15 09:33:33;;;;;;;;;54.75;45.00;;;;;11.49;56.84;99460.06;5117190;27;8871;-81
2023/01/15 09:36:04;;;;;;;;;56.75;44.50;;;;;11.53;55.67;99460.91;5116279;27;8844;-77
2023/01/15 09:38:33;;;;;;;;;54.25;44.50;;;;;11.53;55.51;99466.13;5075921;27;8841;-75
2023/01/15 09:42:03;;;;;;;;;46.00;41.00;;;;;11.79;54.94;99458.09;5111917;27;8860;-80
2023/01/15 09:44:15;;;;;;;;;57.25;45.75;;;;;11.82;55.71;99463.31;5111987;27;8968;-76
2023/01/15 09:46:55;;;;;;;;;54.25;44.50;;;;;11.89;54.89;99454.59;5130163;27;8857;-76
2023/01/15 09:49:37;;;;;;;;;56.75;45.25;;;;;12.00;54.62;99454.53;5076228;27;8838;-77
2023/01/15 09:52:16;;;;;;;;;53.00;44.50;;;;;12.18;54.45;99444.78;5105199;27;8887;-80
2023/01/15 09:54:57;;;;;;;;;55.75;43.75;;;;;12.30;54.71;99434.22;5116334;27;9008;-79
2023/01/15 09:57:28;;;;;;;;;46.50;40.75;;;;;12.25;53.92;99431.66;5123246;27;8857;-76
2023/01/15 10:00:02;;;;;;;;;55.75;43.25;;;;;12.28;53.84;99426.38;5111246;27;9634;-80
2023/01/15 10:02:45;;;;;;;;;52.25;44.50;;;;;12.56;53.22;99423.50;5114456;27;8852;-79
2023/01/15 10:05:22;;;;;;;;;51.50;44.25;;;;;12.62;52.23;99402.50;5108966;27;8980;-80
2023/01/15 10:07:58;;;;;;;;;43.50;39.00;;;;;12.51;52.20;99409.59;5122592;27;8938;-76
2023/01/15 10:10:32;;;;;;;;;54.00;43.25;;;;;12.61;52.14;99403.38;5090074;28;8879;-78
2023/01/15 10:13:09;;;;;;;;;47.00;39.00;;;;;12.77;51.64;99398.84;5123921;27;8861;-81
2023/01/15 10:15:41;;;;;;;;;51.75;41.25;;;;;12.81;51.83;99402.28;5091159;27;8837;-79
2023/01/15 10:18:16;;;;;;;;;46.00;40.25;;;;;12.95;51.18;99394.25;5129195;27;8856;-78
2023/01/15 10:21:14;;;;;;;;;42.25;38.75;;;;;13.18;50.20;99393.97;5116278;27;8861;-78
2023/01/15 10:24:01;;;;;;;;;43.25;39.25;;;;;13.22;49.98;99386.03;5086633;28;8862;-78
2023/01/15 10:26:36;;;;;;;;;44.75;39.50;;;;;13.14;49.91;99385.28;5074597;28;8938;-80
2023/01/15 10:29:16;;;;;;;;;48.50;39.00;;;;;13.32;49.15;99378.94;5034867;28;8908;-78
2023/01/15 10:31:53;;;;;;;;;52.50;43.75;;;;;13.20;48.84;99369.50;5104215;28;8961;-78
2023/01/15 10:34:59;;;;;;;;;37.75;34.00;;;;;13.30;48.84;99367.63;5088759;28;8847;-79
2023/01/15 10:37:34;;;;;;;;;40.60;37.60;;;;;13.18;48.73;99359.94;5086665;28;8923;-80
2023/01/15 10:40:25;;;;;;;;;37.00;33.50;;;;;13.29;48.98;99355.41;5104216;28;8907;-80
2023/01/15 10:43:02;;;;;;;;;45.25;38.50;;;;;13.43;48.91;99352.59;5093938;28;8843;-76
2023/01/15 10:45:36;;;;;;;;;44.75;38.25;;;;;13.39;47.65;99348.31;5087766;28;8856;-80
2023/01/15 10:48:11;;;;;;;;;44.25;39.75;;;;;13.46;48.24;99331.63;5105773;28;8869;-78
2023/01/15 10:50:41;;;;;;;;;48.50;39.75;;;;;13.50;47.78;99329.81;5106155;28;8887;-79
2023/01/15 10:53:17;;;;;;;;;30.00;26.50;;;;;13.59;47.57;99324.41;5104850;28;8840;-79
2023/01/15 10:55:54;;;;;;;;;46.50;37.75;;;;;13.64;47.75;99320.81;5104405;28;8832;-77
2023/01/15 10:58:30;;;;;;;;;47.00;39.25;;;;;13.75;47.30;99315.41;5071509;28;8979;-79
2023/01/15 11:01:03;;;;;;;;;39.75;36.50;;;;;13.69;47.36;99307.66;5100039;27;8857;-79
2023/01/15 11:03:36;;;;;;;;;37.00;34.00;;;;;13.77;47.31;99299.66;5128629;27;8950;-78
2023/01/15 11:06:08;;;;;;;;;41.50;36.00;;;;;13.86;47.20;99293.41;5108491;27;8833;-79
2023/01/15 11:08:38;;;;;;;;;32.00;28.75;;;;;13.82;47.18;99287.34;5083170;27;8846;-78
2023/01/15 11:19:35;;;;;;;;;42.50;37.75;;;;;13.92;46.91;99278.41;5123386;28;8857;-75
2023/01/15 11:20:31;;;;;;;;;40.25;35.75;;;;;14.29;45.79;99253.22;5097864;27;8872;-78
2023/01/15 11:23:08;;;;;;;;;37.00;32.50;;;;;14.25;45.72;99255.03;5064713;28;8843;-78
2023/01/15 11:25:43;;;;;;;;;36.80;34.40;;;;;14.20;45.92;99255.16;5046873;28;8842;-77
2023/01/15 11:28:14;;;;;;;;;38.60;35.60;;;;;14.18;45.45;99242.97;5043772;28;8875;-77
2023/01/15 11:30:52;;;;;;;;;35.80;32.80;;;;;14.10;45.22;99250.09;5038285;28;8836;-76
2023/01/15 11:33:24;;;;;;;;;37.00;33.00;;;;;14.04;45.58;99236.25;5068128;28;8905;-75
2023/01/15 11:35:57;;;;;;;;;37.00;33.20;;;;;14.11;44.85;99223.00;5067586;28;9877;-77
2023/01/15 11:38:28;;;;;;;;;30.20;25.00;;;;;14.11;44.80;99212.50;5051718;28;8836;-76
2023/01/15 11:40:59;;;;;;;;;30.80;29.40;;;;;14.06;44.55;99214.34;5068562;28;8859;-78
2023/01/15 11:51:58;;;;;;;;;30.80;27.40;;;;;14.09;44.74;99186.31;5052339;28;8919;-74
2023/01/15 11:54:30;;;;;;;;;30.00;28.20;;;;;14.14;45.32;99184.47;5051500;28;8886;-73
2023/01/15 11:56:59;;;;;;;;;30.60;28.20;;;;;14.25;45.56;99192.09;5059111;28;8910;-77
2023/01/15 11:59:29;;;;;;;;;23.40;20.80;;;;;14.20;45.83;99196.59;5058763;28;8916;-79
2023/01/15 12:02:03;;;;;;;;;27.80;27.00;;;;;14.18;44.73;99182.66;5099384;28;8853;-77
2023/01/15 12:04:38;;;;;;;;;31.40;29.20;;;;;14.33;44.51;99182.31;5114071;28;8953;-79
2023/01/15 12:07:13;;;;;;;;;33.20;27.00;;;;;14.43;43.97;99186.47;5092756;28;9624;-80
2023/01/15 12:10:00;;;;;;;;;34.00;31.40;;;;;14.37;42.96;99178.72;5091038;28;8852;-79
2023/01/15 12:12:43;;;;;;;;;34.20;30.20;;;;;14.40;43.64;99181.28;5091864;28;8940;-79
2023/01/15 12:15:33;;;;;;;;;28.20;27.00;;;;;14.47;43.26;99178.53;5091794;28;8848;-78
2023/01/15 12:18:30;;;;;;;;;31.80;31.00;;;;;14.54;43.21;99172.25;5089001;28;8907;-77
2023/01/15 12:21:04;;;;;;;;;30.20;28.60;;;;;14.51;42.80;99164.44;5106732;28;8936;-77
2023/01/15 12:23:55;;;;;;;;;34.00;27.20;;;;;14.71;42.84;99154.38;5093546;28;8879;-78
2023/01/15 12:26:27;;;;;;;;;23.20;23.20;;;;;14.63;42.63;99156.34;5049630;28;8880;-78
2023/01/15 12:29:04;;;;;;;;;31.60;28.00;;;;;14.56;43.01;99136.34;5048274;28;8962;-79
2023/01/15 12:31:38;;;;;;;;;31.20;27.40;;;;;14.65;43.13;99135.28;5049762;28;9000;-79
2023/01/15 12:34:19;;;;;;;;;37.00;34.40;;;;;14.66;42.63;99131.78;5047678;28;8853;-79
2023/01/15 12:36:52;;;;;;;;;31.00;30.60;;;;;14.66;43.03;99129.16;5038497;28;8855;-79